sensor_id;sensor_type;location;lat;lon;timestamp;P1;durP1;ratioP1;P2;durP2;ratioP2
16693;SDS011;39538;52.196;9.892;2022-12-18T00:01:56;4.97;;;4.47;;
16693;SDS011;39538;52.196;9.892;2022-12-18T00:04:25;6.80;;;5.00;;
16693;SDS011;39538;52.196;9.892;2022-12-18T00:06:54;6.30;;;5.07;;
16693;SDS011;39538;52.196;9.892;2022-12-18T00:09:20;4.50;;;4.10;;
16693;SDS011;39538;52.196;9.892;2022-12-18T00:11:47;6.17;;;4.37;;
16693;SDS011;39538;52.196;9.892;2022-12-18T00:14:13;5.13;;;4.63;;
16693;SDS011;39538;52.196;9.892;2022-12-18T00:16:42;4.90;;;4.00;;
16693;SDS011;39538;52.196;9.892;2022-12-18T00:19:12;10.53;;;3.90;;
16693;SDS011;39538;52.196;9.892;2022-12-18T00:21:40;6.20;;;3.67;;
16693;SDS011;39538;52.196;9.892;2022-12-18T00:24:09;5.30;;;4.73;;
16693;SDS011;39538;52.196;9.892;2022-12-18T00:26:36;5.40;;;2.63;;
16693;SDS011;39538;52.196;9.892;2022-12-18T00:29:05;4.37;;;2.90;;
16693;SDS011;39538;52.196;9.892;2022-12-18T00:31:34;3.40;;;3.00;;
16693;SDS011;39538;52.196;9.892;2022-12-18T00:34:01;4.00;;;2.40;;
16693;SDS011;39538;52.196;9.892;2022-12-18T00:36:29;4.17;;;2.53;;
16693;SDS011;39538;52.196;9.892;2022-12-18T00:38:57;3.80;;;3.07;;
16693;SDS011;39538;52.196;9.892;2022-12-18T00:41:27;4.37;;;3.10;;
16693;SDS011;39538;52.196;9.892;2022-12-18T00:44:12;4.90;;;2.73;;
16693;SDS011;39538;52.196;9.892;2022-12-18T00:46:40;3.37;;;2.73;;
16693;SDS011;39538;52.196;9.892;2022-12-18T00:49:07;4.47;;;3.93;;
16693;SDS011;39538;52.196;9.892;2022-12-18T00:51:34;3.27;;;2.93;;
16693;SDS011;39538;52.196;9.892;2022-12-18T00:54:00;2.67;;;2.23;;
16693;SDS011;39538;52.196;9.892;2022-12-18T00:56:28;4.07;;;3.70;;
16693;SDS011;39538;52.196;9.892;2022-12-18T00:58:55;6.67;;;3.43;;
16693;SDS011;39538;52.196;9.892;2022-12-18T01:01:21;4.57;;;4.10;;
16693;SDS011;39538;52.196;9.892;2022-12-18T01:03:48;5.07;;;3.20;;
16693;SDS011;39538;52.196;9.892;2022-12-18T01:06:15;5.40;;;4.87;;
16693;SDS011;39538;52.196;9.892;2022-12-18T01:08:42;3.93;;;2.80;;
16693;SDS011;39538;52.196;9.892;2022-12-18T01:11:10;5.10;;;4.63;;
16693;SDS011;39538;52.196;9.892;2022-12-18T01:13:39;5.20;;;3.80;;
16693;SDS011;39538;52.196;9.892;2022-12-18T01:16:06;5.67;;;3.13;;
16693;SDS011;39538;52.196;9.892;2022-12-18T01:18:33;4.03;;;3.10;;
16693;SDS011;39538;52.196;9.892;2022-12-18T01:21:00;6.00;;;5.33;;
16693;SDS011;39538;52.196;9.892;2022-12-18T01:23:27;5.20;;;4.67;;
16693;SDS011;39538;52.196;9.892;2022-12-18T01:25:53;5.43;;;2.43;;
16693;SDS011;39538;52.196;9.892;2022-12-18T01:28:19;4.33;;;3.47;;
16693;SDS011;39538;52.196;9.892;2022-12-18T01:30:47;6.40;;;3.70;;
16693;SDS011;39538;52.196;9.892;2022-12-18T01:33:14;6.57;;;4.80;;
16693;SDS011;39538;52.196;9.892;2022-12-18T01:35:40;7.47;;;3.83;;
16693;SDS011;39538;52.196;9.892;2022-12-18T01:38:07;6.30;;;4.47;;
16693;SDS011;39538;52.196;9.892;2022-12-18T01:40:34;8.00;;;4.07;;
16693;SDS011;39538;52.196;9.892;2022-12-18T01:43:01;6.63;;;5.07;;
16693;SDS011;39538;52.196;9.892;2022-12-18T01:45:27;5.47;;;4.90;;
16693;SDS011;39538;52.196;9.892;2022-12-18T01:47:56;13.10;;;5.87;;
16693;SDS011;39538;52.196;9.892;2022-12-18T01:50:27;7.37;;;6.17;;
16693;SDS011;39538;52.196;9.892;2022-12-18T01:52:58;14.40;;;5.53;;
16693;SDS011;39538;52.196;9.892;2022-12-18T01:55:28;7.67;;;5.57;;
16693;SDS011;39538;52.196;9.892;2022-12-18T01:57:58;7.00;;;6.40;;
16693;SDS011;39538;52.196;9.892;2022-12-18T02:00:26;5.87;;;5.33;;
16693;SDS011;39538;52.196;9.892;2022-12-18T02:02:53;4.37;;;3.67;;
16693;SDS011;39538;52.196;9.892;2022-12-18T02:05:22;4.93;;;4.40;;
16693;SDS011;39538;52.196;9.892;2022-12-18T02:08:00;7.30;;;6.60;;
16693;SDS011;39538;52.196;9.892;2022-12-18T02:10:35;5.17;;;4.20;;
16693;SDS011;39538;52.196;9.892;2022-12-18T02:13:10;7.23;;;5.43;;
16693;SDS011;39538;52.196;9.892;2022-12-18T02:15:41;7.27;;;5.60;;
16693;SDS011;39538;52.196;9.892;2022-12-18T02:18:14;8.07;;;4.00;;
16693;SDS011;39538;52.196;9.892;2022-12-18T02:20:49;5.30;;;4.87;;
16693;SDS011;39538;52.196;9.892;2022-12-18T02:23:24;5.07;;;4.03;;
16693;SDS011;39538;52.196;9.892;2022-12-18T02:26:06;5.97;;;4.73;;
16693;SDS011;39538;52.196;9.892;2022-12-18T02:28:38;6.50;;;4.90;;
16693;SDS011;39538;52.196;9.892;2022-12-18T02:31:09;9.13;;;4.07;;
16693;SDS011;39538;52.196;9.892;2022-12-18T02:33:40;8.00;;;5.07;;
16693;SDS011;39538;52.196;9.892;2022-12-18T02:36:09;3.50;;;3.00;;
16693;SDS011;39538;52.196;9.892;2022-12-18T02:38:39;5.13;;;3.43;;
16693;SDS011;39538;52.196;9.892;2022-12-18T02:41:09;4.77;;;4.37;;
16693;SDS011;39538;52.196;9.892;2022-12-18T02:43:37;4.87;;;4.43;;
16693;SDS011;39538;52.196;9.892;2022-12-18T02:48:51;4.53;;;4.13;;
16693;SDS011;39538;52.196;9.892;2022-12-18T02:51:24;4.20;;;3.57;;
16693;SDS011;39538;52.196;9.892;2022-12-18T02:53:58;6.07;;;5.23;;
16693;SDS011;39538;52.196;9.892;2022-12-18T02:56:35;7.87;;;5.13;;
16693;SDS011;39538;52.196;9.892;2022-12-18T02:59:11;5.33;;;4.03;;
16693;SDS011;39538;52.196;9.892;2022-12-18T03:01:41;5.50;;;4.43;;
16693;SDS011;39538;52.196;9.892;2022-12-18T03:04:16;4.70;;;4.20;;
16693;SDS011;39538;52.196;9.892;2022-12-18T03:06:48;4.23;;;3.23;;
16693;SDS011;39538;52.196;9.892;2022-12-18T03:09:17;10.17;;;4.63;;
16693;SDS011;39538;52.196;9.892;2022-12-18T03:11:51;5.67;;;4.13;;
16693;SDS011;39538;52.196;9.892;2022-12-18T03:14:39;9.10;;;3.83;;
16693;SDS011;39538;52.196;9.892;2022-12-18T03:17:09;7.30;;;6.27;;
16693;SDS011;39538;52.196;9.892;2022-12-18T03:19:39;6.00;;;4.43;;
16693;SDS011;39538;52.196;9.892;2022-12-18T03:22:08;9.83;;;3.30;;
16693;SDS011;39538;52.196;9.892;2022-12-18T03:24:36;7.33;;;4.53;;
16693;SDS011;39538;52.196;9.892;2022-12-18T03:27:08;3.17;;;2.80;;
16693;SDS011;39538;52.196;9.892;2022-12-18T03:29:38;4.00;;;2.87;;
16693;SDS011;39538;52.196;9.892;2022-12-18T03:32:09;6.03;;;5.53;;
16693;SDS011;39538;52.196;9.892;2022-12-18T03:34:41;4.40;;;3.63;;
16693;SDS011;39538;52.196;9.892;2022-12-18T03:37:10;5.20;;;4.80;;
16693;SDS011;39538;52.196;9.892;2022-12-18T03:39:37;4.93;;;3.37;;
16693;SDS011;39538;52.196;9.892;2022-12-18T03:42:06;5.20;;;4.10;;
16693;SDS011;39538;52.196;9.892;2022-12-18T03:44:39;4.67;;;3.27;;
16693;SDS011;39538;52.196;9.892;2022-12-18T03:47:13;7.07;;;3.07;;
16693;SDS011;39538;52.196;9.892;2022-12-18T03:49:44;4.63;;;4.20;;
16693;SDS011;39538;52.196;9.892;2022-12-18T03:52:17;5.40;;;3.30;;
16693;SDS011;39538;52.196;9.892;2022-12-18T03:54:47;3.70;;;3.43;;
16693;SDS011;39538;52.196;9.892;2022-12-18T03:57:16;4.73;;;3.17;;
16693;SDS011;39538;52.196;9.892;2022-12-18T03:59:45;3.97;;;3.67;;
16693;SDS011;39538;52.196;9.892;2022-12-18T04:02:13;3.80;;;3.50;;
16693;SDS011;39538;52.196;9.892;2022-12-18T04:04:42;3.83;;;2.20;;
16693;SDS011;39538;52.196;9.892;2022-12-18T04:07:11;3.87;;;3.03;;
16693;SDS011;39538;52.196;9.892;2022-12-18T04:09:39;3.97;;;3.00;;
16693;SDS011;39538;52.196;9.892;2022-12-18T04:12:07;16.33;;;5.17;;
16693;SDS011;39538;52.196;9.892;2022-12-18T04:14:35;3.77;;;2.50;;
16693;SDS011;39538;52.196;9.892;2022-12-18T04:17:02;2.57;;;2.37;;
16693;SDS011;39538;52.196;9.892;2022-12-18T04:19:29;5.90;;;2.90;;
16693;SDS011;39538;52.196;9.892;2022-12-18T04:21:55;4.77;;;3.97;;
16693;SDS011;39538;52.196;9.892;2022-12-18T04:24:22;3.90;;;3.20;;
16693;SDS011;39538;52.196;9.892;2022-12-18T04:26:48;4.43;;;2.27;;
16693;SDS011;39538;52.196;9.892;2022-12-18T04:29:15;4.43;;;2.87;;
16693;SDS011;39538;52.196;9.892;2022-12-18T04:31:43;7.13;;;3.80;;
16693;SDS011;39538;52.196;9.892;2022-12-18T04:34:09;2.93;;;2.63;;
16693;SDS011;39538;52.196;9.892;2022-12-18T04:36:36;4.13;;;3.57;;
16693;SDS011;39538;52.196;9.892;2022-12-18T04:39:03;6.60;;;3.30;;
16693;SDS011;39538;52.196;9.892;2022-12-18T04:41:29;5.30;;;5.00;;
16693;SDS011;39538;52.196;9.892;2022-12-18T04:43:55;5.60;;;3.20;;
16693;SDS011;39538;52.196;9.892;2022-12-18T04:46:22;4.63;;;3.43;;
16693;SDS011;39538;52.196;9.892;2022-12-18T04:48:50;5.53;;;4.13;;
16693;SDS011;39538;52.196;9.892;2022-12-18T04:51:16;3.97;;;3.50;;
16693;SDS011;39538;52.196;9.892;2022-12-18T04:53:43;5.37;;;4.17;;
16693;SDS011;39538;52.196;9.892;2022-12-18T04:56:10;5.90;;;4.17;;
16693;SDS011;39538;52.196;9.892;2022-12-18T04:58:38;4.37;;;2.63;;
16693;SDS011;39538;52.196;9.892;2022-12-18T05:01:07;4.07;;;3.70;;
16693;SDS011;39538;52.196;9.892;2022-12-18T05:03:35;4.63;;;3.03;;
16693;SDS011;39538;52.196;9.892;2022-12-18T05:06:03;4.93;;;3.93;;
16693;SDS011;39538;52.196;9.892;2022-12-18T05:08:30;3.47;;;2.37;;
16693;SDS011;39538;52.196;9.892;2022-12-18T05:11:00;4.60;;;3.83;;
16693;SDS011;39538;52.196;9.892;2022-12-18T05:13:28;3.73;;;2.53;;
16693;SDS011;39538;52.196;9.892;2022-12-18T05:15:55;2.83;;;2.27;;
16693;SDS011;39538;52.196;9.892;2022-12-18T05:18:22;4.40;;;2.53;;
16693;SDS011;39538;52.196;9.892;2022-12-18T05:20:49;2.50;;;2.07;;
16693;SDS011;39538;52.196;9.892;2022-12-18T05:23:17;8.23;;;2.63;;
16693;SDS011;39538;52.196;9.892;2022-12-18T05:25:46;5.27;;;2.20;;
16693;SDS011;39538;52.196;9.892;2022-12-18T05:28:13;5.77;;;2.50;;
16693;SDS011;39538;52.196;9.892;2022-12-18T05:30:39;2.57;;;1.57;;
16693;SDS011;39538;52.196;9.892;2022-12-18T05:33:09;3.90;;;2.07;;
16693;SDS011;39538;52.196;9.892;2022-12-18T05:35:35;4.17;;;2.53;;
16693;SDS011;39538;52.196;9.892;2022-12-18T05:38:02;2.97;;;2.67;;
16693;SDS011;39538;52.196;9.892;2022-12-18T05:40:30;2.97;;;2.20;;
16693;SDS011;39538;52.196;9.892;2022-12-18T05:42:56;3.17;;;2.60;;
16693;SDS011;39538;52.196;9.892;2022-12-18T05:45:23;2.87;;;1.80;;
16693;SDS011;39538;52.196;9.892;2022-12-18T05:47:49;6.03;;;2.00;;
16693;SDS011;39538;52.196;9.892;2022-12-18T05:50:16;5.13;;;2.30;;
16693;SDS011;39538;52.196;9.892;2022-12-18T05:52:43;2.10;;;1.90;;
16693;SDS011;39538;52.196;9.892;2022-12-18T05:55:09;2.27;;;1.67;;
16693;SDS011;39538;52.196;9.892;2022-12-18T05:57:37;2.00;;;1.83;;
16693;SDS011;39538;52.196;9.892;2022-12-18T06:00:04;3.57;;;2.57;;
16693;SDS011;39538;52.196;9.892;2022-12-18T06:02:31;3.80;;;1.63;;
16693;SDS011;39538;52.196;9.892;2022-12-18T06:04:58;2.53;;;1.77;;
16693;SDS011;39538;52.196;9.892;2022-12-18T06:07:24;2.57;;;2.23;;
16693;SDS011;39538;52.196;9.892;2022-12-18T06:09:51;2.13;;;1.97;;
16693;SDS011;39538;52.196;9.892;2022-12-18T06:12:17;3.03;;;2.63;;
16693;SDS011;39538;52.196;9.892;2022-12-18T06:14:45;2.43;;;2.23;;
16693;SDS011;39538;52.196;9.892;2022-12-18T06:17:11;3.37;;;2.63;;
16693;SDS011;39538;52.196;9.892;2022-12-18T06:19:38;3.13;;;2.90;;
16693;SDS011;39538;52.196;9.892;2022-12-18T06:22:05;3.90;;;2.10;;
16693;SDS011;39538;52.196;9.892;2022-12-18T06:24:31;2.63;;;1.87;;
16693;SDS011;39538;52.196;9.892;2022-12-18T06:26:58;1.63;;;1.23;;
16693;SDS011;39538;52.196;9.892;2022-12-18T06:29:24;2.90;;;2.60;;
16693;SDS011;39538;52.196;9.892;2022-12-18T06:31:52;3.20;;;1.63;;
16693;SDS011;39538;52.196;9.892;2022-12-18T06:34:18;4.20;;;2.43;;
16693;SDS011;39538;52.196;9.892;2022-12-18T06:36:45;13.47;;;3.57;;
16693;SDS011;39538;52.196;9.892;2022-12-18T06:39:11;2.97;;;2.77;;
16693;SDS011;39538;52.196;9.892;2022-12-18T06:41:38;4.40;;;3.67;;
16693;SDS011;39538;52.196;9.892;2022-12-18T06:44:04;3.53;;;2.43;;
16693;SDS011;39538;52.196;9.892;2022-12-18T06:46:31;4.57;;;3.67;;
16693;SDS011;39538;52.196;9.892;2022-12-18T06:48:59;2.87;;;1.90;;
16693;SDS011;39538;52.196;9.892;2022-12-18T06:51:26;3.80;;;2.03;;
16693;SDS011;39538;52.196;9.892;2022-12-18T06:53:52;3.10;;;2.37;;
16693;SDS011;39538;52.196;9.892;2022-12-18T06:56:19;2.73;;;2.50;;
16693;SDS011;39538;52.196;9.892;2022-12-18T06:58:45;2.97;;;1.90;;
16693;SDS011;39538;52.196;9.892;2022-12-18T07:01:12;2.93;;;2.67;;
16693;SDS011;39538;52.196;9.892;2022-12-18T07:03:40;3.63;;;2.13;;
16693;SDS011;39538;52.196;9.892;2022-12-18T07:06:13;7.87;;;2.50;;
16693;SDS011;39538;52.196;9.892;2022-12-18T07:08:41;4.00;;;3.60;;
16693;SDS011;39538;52.196;9.892;2022-12-18T07:11:07;4.77;;;4.33;;
16693;SDS011;39538;52.196;9.892;2022-12-18T07:13:34;13.33;;;4.83;;
16693;SDS011;39538;52.196;9.892;2022-12-18T07:16:07;6.23;;;2.77;;
16693;SDS011;39538;52.196;9.892;2022-12-18T07:18:34;2.47;;;2.00;;
16693;SDS011;39538;52.196;9.892;2022-12-18T07:21:04;3.80;;;1.90;;
16693;SDS011;39538;52.196;9.892;2022-12-18T07:23:33;2.60;;;2.27;;
16693;SDS011;39538;52.196;9.892;2022-12-18T07:26:01;7.87;;;3.30;;
16693;SDS011;39538;52.196;9.892;2022-12-18T07:28:28;2.33;;;2.23;;
16693;SDS011;39538;52.196;9.892;2022-12-18T07:30:55;2.63;;;2.27;;
16693;SDS011;39538;52.196;9.892;2022-12-18T07:33:22;2.23;;;2.03;;
16693;SDS011;39538;52.196;9.892;2022-12-18T07:35:49;5.97;;;3.83;;
16693;SDS011;39538;52.196;9.892;2022-12-18T07:38:15;3.73;;;1.60;;
16693;SDS011;39538;52.196;9.892;2022-12-18T07:40:43;2.03;;;1.83;;
16693;SDS011;39538;52.196;9.892;2022-12-18T07:43:09;5.60;;;1.30;;
16693;SDS011;39538;52.196;9.892;2022-12-18T07:45:36;8.00;;;2.50;;
16693;SDS011;39538;52.196;9.892;2022-12-18T07:48:03;8.07;;;3.13;;
16693;SDS011;39538;52.196;9.892;2022-12-18T07:50:30;2.90;;;1.90;;
16693;SDS011;39538;52.196;9.892;2022-12-18T07:52:57;2.30;;;2.10;;
16693;SDS011;39538;52.196;9.892;2022-12-18T07:55:28;3.83;;;1.60;;
16693;SDS011;39538;52.196;9.892;2022-12-18T07:57:56;3.07;;;1.67;;
16693;SDS011;39538;52.196;9.892;2022-12-18T08:00:22;9.97;;;2.67;;
16693;SDS011;39538;52.196;9.892;2022-12-18T08:02:49;5.67;;;3.13;;
16693;SDS011;39538;52.196;9.892;2022-12-18T08:05:16;2.17;;;1.47;;
16693;SDS011;39538;52.196;9.892;2022-12-18T08:07:42;4.10;;;3.27;;
16693;SDS011;39538;52.196;9.892;2022-12-18T08:10:09;2.17;;;1.60;;
16693;SDS011;39538;52.196;9.892;2022-12-18T08:12:36;3.23;;;2.67;;
16693;SDS011;39538;52.196;9.892;2022-12-18T08:15:04;3.47;;;2.50;;
16693;SDS011;39538;52.196;9.892;2022-12-18T08:17:31;3.57;;;2.37;;
16693;SDS011;39538;52.196;9.892;2022-12-18T08:19:58;2.23;;;1.97;;
16693;SDS011;39538;52.196;9.892;2022-12-18T08:22:25;3.40;;;2.60;;
16693;SDS011;39538;52.196;9.892;2022-12-18T08:24:51;2.77;;;2.13;;
16693;SDS011;39538;52.196;9.892;2022-12-18T08:27:18;2.97;;;2.10;;
16693;SDS011;39538;52.196;9.892;2022-12-18T08:29:44;4.47;;;2.97;;
16693;SDS011;39538;52.196;9.892;2022-12-18T08:32:12;3.83;;;2.77;;
16693;SDS011;39538;52.196;9.892;2022-12-18T08:34:39;3.00;;;2.27;;
16693;SDS011;39538;52.196;9.892;2022-12-18T08:37:06;2.17;;;1.73;;
16693;SDS011;39538;52.196;9.892;2022-12-18T08:39:32;8.83;;;3.63;;
16693;SDS011;39538;52.196;9.892;2022-12-18T08:41:59;3.00;;;1.93;;
16693;SDS011;39538;52.196;9.892;2022-12-18T08:44:43;4.43;;;3.83;;
16693;SDS011;39538;52.196;9.892;2022-12-18T08:47:10;1.80;;;1.70;;
16693;SDS011;39538;52.196;9.892;2022-12-18T08:49:38;1.80;;;1.20;;
16693;SDS011;39538;52.196;9.892;2022-12-18T08:52:04;3.73;;;2.03;;
16693;SDS011;39538;52.196;9.892;2022-12-18T08:54:31;2.20;;;1.57;;
16693;SDS011;39538;52.196;9.892;2022-12-18T08:56:57;3.50;;;2.03;;
16693;SDS011;39538;52.196;9.892;2022-12-18T08:59:24;5.57;;;2.33;;
16693;SDS011;39538;52.196;9.892;2022-12-18T09:01:53;1.77;;;1.67;;
16693;SDS011;39538;52.196;9.892;2022-12-18T09:04:19;3.27;;;1.10;;
16693;SDS011;39538;52.196;9.892;2022-12-18T09:06:48;2.17;;;1.83;;
16693;SDS011;39538;52.196;9.892;2022-12-18T09:09:15;2.47;;;2.27;;
16693;SDS011;39538;52.196;9.892;2022-12-18T09:11:41;1.43;;;0.90;;
16693;SDS011;39538;52.196;9.892;2022-12-18T09:14:08;2.13;;;1.23;;
16693;SDS011;39538;52.196;9.892;2022-12-18T09:16:36;5.73;;;3.10;;
16693;SDS011;39538;52.196;9.892;2022-12-18T09:19:03;1.50;;;1.40;;
16693;SDS011;39538;52.196;9.892;2022-12-18T09:21:31;2.37;;;1.73;;
16693;SDS011;39538;52.196;9.892;2022-12-18T09:24:00;8.03;;;4.07;;
16693;SDS011;39538;52.196;9.892;2022-12-18T09:26:26;7.87;;;2.23;;
16693;SDS011;39538;52.196;9.892;2022-12-18T09:28:53;3.23;;;2.37;;
16693;SDS011;39538;52.196;9.892;2022-12-18T09:31:21;4.27;;;2.30;;
16693;SDS011;39538;52.196;9.892;2022-12-18T09:33:49;3.33;;;1.33;;
16693;SDS011;39538;52.196;9.892;2022-12-18T09:36:16;2.27;;;1.10;;
16693;SDS011;39538;52.196;9.892;2022-12-18T09:38:44;3.60;;;1.30;;
16693;SDS011;39538;52.196;9.892;2022-12-18T09:41:19;2.77;;;1.47;;
16693;SDS011;39538;52.196;9.892;2022-12-18T09:44:00;2.00;;;1.90;;
16693;SDS011;39538;52.196;9.892;2022-12-18T09:46:30;2.03;;;1.77;;
16693;SDS011;39538;52.196;9.892;2022-12-18T09:49:01;1.67;;;1.33;;
16693;SDS011;39538;52.196;9.892;2022-12-18T09:51:32;2.13;;;1.50;;
16693;SDS011;39538;52.196;9.892;2022-12-18T09:54:04;1.40;;;1.10;;
16693;SDS011;39538;52.196;9.892;2022-12-18T09:56:39;2.30;;;1.70;;
16693;SDS011;39538;52.196;9.892;2022-12-18T09:59:14;1.37;;;1.27;;
16693;SDS011;39538;52.196;9.892;2022-12-18T10:01:47;1.00;;;0.90;;
16693;SDS011;39538;52.196;9.892;2022-12-18T10:04:13;1.07;;;0.93;;
16693;SDS011;39538;52.196;9.892;2022-12-18T10:06:42;1.80;;;1.20;;
16693;SDS011;39538;52.196;9.892;2022-12-18T10:09:16;2.43;;;0.70;;
16693;SDS011;39538;52.196;9.892;2022-12-18T10:11:55;0.80;;;0.80;;
16693;SDS011;39538;52.196;9.892;2022-12-18T10:14:33;1.73;;;0.90;;
16693;SDS011;39538;52.196;9.892;2022-12-18T10:17:10;6.77;;;0.93;;
16693;SDS011;39538;52.196;9.892;2022-12-18T10:19:45;0.77;;;0.50;;
16693;SDS011;39538;52.196;9.892;2022-12-18T10:22:29;1.13;;;0.97;;
16693;SDS011;39538;52.196;9.892;2022-12-18T10:25:03;1.40;;;1.03;;
16693;SDS011;39538;52.196;9.892;2022-12-18T10:27:42;1.13;;;0.80;;
16693;SDS011;39538;52.196;9.892;2022-12-18T10:30:12;4.93;;;1.07;;
16693;SDS011;39538;52.196;9.892;2022-12-18T10:32:41;1.70;;;1.60;;
16693;SDS011;39538;52.196;9.892;2022-12-18T10:35:09;1.90;;;1.70;;
16693;SDS011;39538;52.196;9.892;2022-12-18T10:37:58;2.10;;;1.57;;
16693;SDS011;39538;52.196;9.892;2022-12-18T10:40:26;1.50;;;1.40;;
16693;SDS011;39538;52.196;9.892;2022-12-18T10:43:04;0.90;;;0.83;;
16693;SDS011;39538;52.196;9.892;2022-12-18T10:45:32;4.73;;;4.33;;
16693;SDS011;39538;52.196;9.892;2022-12-18T10:47:58;1.50;;;1.40;;
16693;SDS011;39538;52.196;9.892;2022-12-18T10:50:26;1.90;;;1.80;;
16693;SDS011;39538;52.196;9.892;2022-12-18T10:52:57;1.93;;;1.10;;
16693;SDS011;39538;52.196;9.892;2022-12-18T10:55:26;1.20;;;1.10;;
16693;SDS011;39538;52.196;9.892;2022-12-18T10:58:01;1.63;;;1.53;;
16693;SDS011;39538;52.196;9.892;2022-12-18T11:00:42;1.70;;;1.10;;
16693;SDS011;39538;52.196;9.892;2022-12-18T11:03:28;8.13;;;1.43;;
16693;SDS011;39538;52.196;9.892;2022-12-18T11:06:04;8.60;;;1.07;;
16693;SDS011;39538;52.196;9.892;2022-12-18T11:08:33;1.30;;;0.80;;
16693;SDS011;39538;52.196;9.892;2022-12-18T11:11:00;2.20;;;0.87;;
16693;SDS011;39538;52.196;9.892;2022-12-18T11:13:28;0.70;;;0.47;;
16693;SDS011;39538;52.196;9.892;2022-12-18T11:15:56;2.13;;;0.67;;
16693;SDS011;39538;52.196;9.892;2022-12-18T11:18:25;1.73;;;0.70;;
16693;SDS011;39538;52.196;9.892;2022-12-18T11:20:54;1.00;;;0.77;;
16693;SDS011;39538;52.196;9.892;2022-12-18T11:23:23;2.17;;;0.83;;
16693;SDS011;39538;52.196;9.892;2022-12-18T11:25:51;1.13;;;0.60;;
16693;SDS011;39538;52.196;9.892;2022-12-18T11:28:35;0.77;;;0.77;;
16693;SDS011;39538;52.196;9.892;2022-12-18T11:33:58;1.70;;;1.27;;
16693;SDS011;39538;52.196;9.892;2022-12-18T11:36:28;2.70;;;1.17;;
16693;SDS011;39538;52.196;9.892;2022-12-18T11:38:59;1.47;;;0.80;;
16693;SDS011;39538;52.196;9.892;2022-12-18T11:41:29;1.17;;;0.90;;
16693;SDS011;39538;52.196;9.892;2022-12-18T11:44:21;1.43;;;0.87;;
16693;SDS011;39538;52.196;9.892;2022-12-18T11:46:55;1.20;;;0.83;;
16693;SDS011;39538;52.196;9.892;2022-12-18T11:49:27;0.77;;;0.70;;
16693;SDS011;39538;52.196;9.892;2022-12-18T11:52:00;1.07;;;0.90;;
16693;SDS011;39538;52.196;9.892;2022-12-18T11:54:30;0.70;;;0.70;;
16693;SDS011;39538;52.196;9.892;2022-12-18T11:56:58;2.30;;;0.90;;
16693;SDS011;39538;52.196;9.892;2022-12-18T11:59:38;2.40;;;0.97;;
16693;SDS011;39538;52.196;9.892;2022-12-18T12:02:18;2.10;;;1.73;;
16693;SDS011;39538;52.196;9.892;2022-12-18T12:05:06;1.40;;;1.20;;
16693;SDS011;39538;52.196;9.892;2022-12-18T12:07:47;1.93;;;1.30;;
16693;SDS011;39538;52.196;9.892;2022-12-18T12:10:24;2.10;;;1.20;;
16693;SDS011;39538;52.196;9.892;2022-12-18T12:13:04;2.03;;;1.37;;
16693;SDS011;39538;52.196;9.892;2022-12-18T12:15:47;1.90;;;1.63;;
16693;SDS011;39538;52.196;9.892;2022-12-18T12:18:28;1.37;;;1.10;;
16693;SDS011;39538;52.196;9.892;2022-12-18T12:21:09;1.10;;;1.00;;
16693;SDS011;39538;52.196;9.892;2022-12-18T12:23:44;1.27;;;1.17;;
16693;SDS011;39538;52.196;9.892;2022-12-18T12:26:18;2.07;;;1.03;;
16693;SDS011;39538;52.196;9.892;2022-12-18T12:28:52;2.70;;;1.60;;
16693;SDS011;39538;52.196;9.892;2022-12-18T12:31:40;2.07;;;0.90;;
16693;SDS011;39538;52.196;9.892;2022-12-18T12:34:16;2.77;;;2.50;;
16693;SDS011;39538;52.196;9.892;2022-12-18T12:36:50;1.87;;;1.67;;
16693;SDS011;39538;52.196;9.892;2022-12-18T12:39:28;1.27;;;1.17;;
16693;SDS011;39538;52.196;9.892;2022-12-18T12:41:57;1.00;;;0.90;;
16693;SDS011;39538;52.196;9.892;2022-12-18T12:44:44;1.20;;;1.10;;
16693;SDS011;39538;52.196;9.892;2022-12-18T12:47:18;6.20;;;3.50;;
16693;SDS011;39538;52.196;9.892;2022-12-18T12:49:49;2.93;;;1.60;;
16693;SDS011;39538;52.196;9.892;2022-12-18T12:52:17;2.60;;;2.37;;
16693;SDS011;39538;52.196;9.892;2022-12-18T12:54:53;1.33;;;1.20;;
16693;SDS011;39538;52.196;9.892;2022-12-18T12:57:21;2.93;;;2.30;;
16693;SDS011;39538;52.196;9.892;2022-12-18T12:59:56;2.07;;;1.93;;
16693;SDS011;39538;52.196;9.892;2022-12-18T13:02:30;2.93;;;2.60;;
16693;SDS011;39538;52.196;9.892;2022-12-18T13:05:02;3.57;;;2.23;;
16693;SDS011;39538;52.196;9.892;2022-12-18T13:07:35;4.23;;;3.20;;
16693;SDS011;39538;52.196;9.892;2022-12-18T13:10:12;4.30;;;3.87;;
16693;SDS011;39538;52.196;9.892;2022-12-18T13:12:54;4.87;;;4.10;;
16693;SDS011;39538;52.196;9.892;2022-12-18T13:15:22;4.43;;;4.00;;
16693;SDS011;39538;52.196;9.892;2022-12-18T13:18:04;6.30;;;4.80;;
16693;SDS011;39538;52.196;9.892;2022-12-18T13:20:36;6.20;;;5.60;;
16693;SDS011;39538;52.196;9.892;2022-12-18T13:23:18;6.87;;;5.07;;
16693;SDS011;39538;52.196;9.892;2022-12-18T13:25:51;10.43;;;5.50;;
16693;SDS011;39538;52.196;9.892;2022-12-18T13:28:20;6.47;;;5.87;;
16693;SDS011;39538;52.196;9.892;2022-12-18T13:30:50;8.70;;;5.60;;
16693;SDS011;39538;52.196;9.892;2022-12-18T13:33:39;5.93;;;5.00;;
16693;SDS011;39538;52.196;9.892;2022-12-18T13:36:15;5.07;;;4.43;;
16693;SDS011;39538;52.196;9.892;2022-12-18T13:48:12;5.03;;;4.53;;
16693;SDS011;39538;52.196;9.892;2022-12-18T13:50:43;4.97;;;4.47;;
16693;SDS011;39538;52.196;9.892;2022-12-18T13:53:16;6.80;;;5.63;;
16693;SDS011;39538;52.196;9.892;2022-12-18T13:55:47;7.10;;;6.40;;
16693;SDS011;39538;52.196;9.892;2022-12-18T13:58:15;11.20;;;9.00;;
16693;SDS011;39538;52.196;9.892;2022-12-18T14:00:42;10.27;;;8.00;;
16693;SDS011;39538;52.196;9.892;2022-12-18T14:03:15;13.37;;;9.10;;
16693;SDS011;39538;52.196;9.892;2022-12-18T14:05:45;8.63;;;7.67;;
16693;SDS011;39538;52.196;9.892;2022-12-18T14:08:19;7.30;;;6.57;;
16693;SDS011;39538;52.196;9.892;2022-12-18T14:10:47;11.03;;;7.47;;
16693;SDS011;39538;52.196;9.892;2022-12-18T14:13:17;10.37;;;7.27;;
16693;SDS011;39538;52.196;9.892;2022-12-18T14:15:51;10.60;;;7.90;;
16693;SDS011;39538;52.196;9.892;2022-12-18T14:18:19;9.40;;;8.50;;
16693;SDS011;39538;52.196;9.892;2022-12-18T14:20:49;14.70;;;12.93;;
16693;SDS011;39538;52.196;9.892;2022-12-18T14:23:26;22.57;;;14.17;;
16693;SDS011;39538;52.196;9.892;2022-12-18T14:25:55;13.37;;;10.40;;
16693;SDS011;39538;52.196;9.892;2022-12-18T14:28:22;8.57;;;6.83;;
16693;SDS011;39538;52.196;9.892;2022-12-18T14:30:49;6.77;;;5.97;;
16693;SDS011;39538;52.196;9.892;2022-12-18T14:33:16;8.17;;;7.17;;
16693;SDS011;39538;52.196;9.892;2022-12-18T14:35:53;8.80;;;7.90;;
16693;SDS011;39538;52.196;9.892;2022-12-18T14:38:26;10.67;;;9.67;;
16693;SDS011;39538;52.196;9.892;2022-12-18T14:40:55;8.00;;;7.37;;
16693;SDS011;39538;52.196;9.892;2022-12-18T14:43:24;8.97;;;8.03;;
16693;SDS011;39538;52.196;9.892;2022-12-18T14:45:51;9.00;;;7.63;;
16693;SDS011;39538;52.196;9.892;2022-12-18T14:48:18;8.90;;;7.73;;
16693;SDS011;39538;52.196;9.892;2022-12-18T14:50:55;11.87;;;7.57;;
16693;SDS011;39538;52.196;9.892;2022-12-18T14:53:28;8.87;;;7.67;;
16693;SDS011;39538;52.196;9.892;2022-12-18T14:56:00;10.23;;;9.27;;
16693;SDS011;39538;52.196;9.892;2022-12-18T14:58:27;16.43;;;10.73;;
16693;SDS011;39538;52.196;9.892;2022-12-18T15:00:54;11.00;;;10.00;;
16693;SDS011;39538;52.196;9.892;2022-12-18T15:03:21;11.27;;;9.73;;
16693;SDS011;39538;52.196;9.892;2022-12-18T15:05:47;18.10;;;13.90;;
16693;SDS011;39538;52.196;9.892;2022-12-18T15:08:27;12.70;;;11.33;;
16693;SDS011;39538;52.196;9.892;2022-12-18T15:10:56;11.97;;;10.53;;
16693;SDS011;39538;52.196;9.892;2022-12-18T15:13:23;10.30;;;9.30;;
16693;SDS011;39538;52.196;9.892;2022-12-18T15:15:51;10.33;;;9.33;;
16693;SDS011;39538;52.196;9.892;2022-12-18T15:18:19;9.17;;;8.27;;